Time;durP1;ratioP1;P1;durP2;ratioP2;P2;SDS_P1;SDS_P2;PMS_P1;PMS_P2;Temp;Humidity;BMP_temperature;BMP_pressure;BME280_temperature;BME280_humidity;BME280_pressure;Samples;Min_cycle;Max_cycle;Signal;HPM_P1;HPM_P2
2023/10/16 00:01:10;;;;;;;6.27;1.70;;;;;;;;;;5014643;28;20444;-56
2023/10/16 00:03:38;;;;;;;3.73;1.50;;;;;;;;;;5015089;28;20439;-56
2023/10/16 00:06:05;;;;;;;4.37;1.67;;;;;;;;;;5015091;28;20606;-56
2023/10/16 00:08:33;;;;;;;5.90;1.87;;;;;;;;;;5015301;28;20281;-57
2023/10/16 00:11:01;;;;;;;4.23;1.67;;;;;;;;;;5014828;28;20312;-56
2023/10/16 00:13:27;;;;;;;2.67;1.60;;;;;;;;;;5014628;28;20202;-56
2023/10/16 00:15:55;;;;;;;6.83;1.70;;;;;;;;;;5014804;28;20713;-56
2023/10/16 00:18:23;;;;;;;4.40;1.80;;;;;;;;;;5012892;28;20440;-56
2023/10/16 00:20:49;;;;;;;3.90;1.80;;;;;;;;;;5013174;28;20198;-54
2023/10/16 00:23:17;;;;;;;4.90;1.57;;;;;;;;;;5014887;28;20280;-55
2023/10/16 00:25:44;;;;;;;2.57;1.70;;;;;;;;;;5014923;28;20468;-53
2023/10/16 00:28:11;;;;;;;4.67;1.90;;;;;;;;;;5014251;28;21158;-53
2023/10/16 00:30:40;;;;;;;6.27;2.13;;;;;;;;;;5014483;28;20499;-52
2023/10/16 00:33:11;;;;;;;2.90;1.80;;;;;;;;;;5014133;28;20447;-52
2023/10/16 00:35:40;;;;;;;4.10;1.80;;;;;;;;;;5014556;28;20436;-52
2023/10/16 00:38:19;;;;;;;4.23;1.93;;;;;;;;;;5014398;28;20455;-52
2023/10/16 00:40:51;;;;;;;2.40;1.73;;;;;;;;;;5014444;28;20194;-53
2023/10/16 00:43:21;;;;;;;7.60;2.17;;;;;;;;;;5014325;28;20837;-52
2023/10/16 00:45:48;;;;;;;3.83;1.83;;;;;;;;;;5014239;28;20787;-52
2023/10/16 00:48:17;;;;;;;2.37;1.77;;;;;;;;;;5014152;28;20448;-53
2023/10/16 00:50:44;;;;;;;4.20;1.67;;;;;;;;;;5014143;28;20592;-52
2023/10/16 00:53:10;;;;;;;7.37;2.50;;;;;;;;;;5013902;28;20552;-53
2023/10/16 00:55:36;;;;;;;4.03;1.63;;;;;;;;;;5013952;28;20206;-52
2023/10/16 00:58:06;;;;;;;5.70;1.87;;;;;;;;;;5014083;28;20433;-52
2023/10/16 01:00:35;;;;;;;3.23;1.80;;;;;;;;;;5014135;28;20197;-52
2023/10/16 01:03:04;;;;;;;3.03;1.97;;;;;;;;;;5012794;28;20969;-52
2023/10/16 01:05:33;;;;;;;5.03;2.10;;;;;;;;;;5014020;28;20447;-52
2023/10/16 01:07:59;;;;;;;4.27;1.87;;;;;;;;;;5013703;28;20789;-52
2023/10/16 01:10:25;;;;;;;5.80;1.80;;;;;;;;;;5013619;28;20232;-51
2023/10/16 01:12:57;;;;;;;2.50;1.73;;;;;;;;;;5013566;28;20523;-52
2023/10/16 01:15:23;;;;;;;3.70;2.07;;;;;;;;;;5013522;28;20201;-52
2023/10/16 01:17:50;;;;;;;3.10;1.87;;;;;;;;;;5013615;28;20605;-52
2023/10/16 01:20:18;;;;;;;6.03;1.97;;;;;;;;;;5013575;28;20444;-52
2023/10/16 01:22:47;;;;;;;3.60;1.50;;;;;;;;;;5013594;28;20437;-53
2023/10/16 01:25:15;;;;;;;3.13;1.63;;;;;;;;;;5013260;28;20536;-53
2023/10/16 01:27:42;;;;;;;5.07;1.80;;;;;;;;;;5013293;28;20436;-52
2023/10/16 01:30:09;;;;;;;4.50;2.23;;;;;;;;;;5013182;28;21199;-51
2023/10/16 01:32:35;;;;;;;4.53;1.50;;;;;;;;;;5013212;28;20488;-53
2023/10/16 01:35:04;;;;;;;5.63;2.20;;;;;;;;;;5013082;28;20516;-52
2023/10/16 01:37:30;;;;;;;3.30;1.83;;;;;;;;;;5010187;28;20479;-52
2023/10/16 01:40:12;;;;;;;6.10;2.10;;;;;;;;;;5012991;28;20608;-52
2023/10/16 01:42:40;;;;;;;5.27;2.00;;;;;;;;;;5011257;28;20954;-52
2023/10/16 01:45:08;;;;;;;10.27;2.00;;;;;;;;;;5012906;28;20452;-52
2023/10/16 01:47:34;;;;;;;5.90;2.20;;;;;;;;;;5013180;28;20517;-53
2023/10/16 01:50:17;;;;;;;5.80;1.73;;;;;;;;;;5012920;28;20432;-52
2023/10/16 01:52:43;;;;;;;3.78;2.03;;;;;;;;;;5011844;28;20890;-52
2023/10/16 01:55:16;;;;;;;4.07;2.00;;;;;;;;;;5010963;28;20881;-53
2023/10/16 01:57:44;;;;;;;3.17;2.27;;;;;;;;;;5012764;28;20225;-52
2023/10/16 02:00:16;;;;;;;2.83;1.70;;;;;;;;;;5012665;28;20292;-53
2023/10/16 02:02:42;;;;;;;3.43;2.70;;;;;;;;;;5012853;28;20429;-53
2023/10/16 02:05:10;;;;;;;2.87;1.70;;;;;;;;;;5010894;28;20475;-52
2023/10/16 02:07:41;;;;;;;3.20;1.80;;;;;;;;;;5012653;28;20683;-52
2023/10/16 02:10:11;;;;;;;5.23;2.07;;;;;;;;;;5012436;28;20564;-52
2023/10/16 02:12:38;;;;;;;2.83;2.10;;;;;;;;;;5012215;28;20611;-52
2023/10/16 02:15:08;;;;;;;4.23;2.00;;;;;;;;;;5012399;28;20448;-52
2023/10/16 02:17:34;;;;;;;3.33;2.00;;;;;;;;;;5012575;28;20441;-52
2023/10/16 02:20:00;;;;;;;4.23;1.97;;;;;;;;;;5010939;28;20459;-52
2023/10/16 02:22:26;;;;;;;3.57;2.00;;;;;;;;;;5010564;28;20208;-52
2023/10/16 02:24:52;;;;;;;3.30;2.00;;;;;;;;;;5010591;28;20560;-52
2023/10/16 02:27:18;;;;;;;2.77;1.53;;;;;;;;;;5010588;28;20232;-52
2023/10/16 02:29:51;;;;;;;3.23;1.80;;;;;;;;;;5005433;28;20583;-52
2023/10/16 02:32:22;;;;;;;2.77;1.77;;;;;;;;;;5010522;28;20684;-52
2023/10/16 02:34:50;;;;;;;5.67;2.23;;;;;;;;;;5008712;28;20484;-52
2023/10/16 02:37:16;;;;;;;2.27;1.63;;;;;;;;;;5012279;28;20436;-52
2023/10/16 02:39:50;;;;;;;5.30;2.20;;;;;;;;;;5006920;28;20885;-52
2023/10/16 02:42:16;;;;;;;2.73;1.87;;;;;;;;;;5012142;28;20232;-52
2023/10/16 02:44:42;;;;;;;4.03;2.00;;;;;;;;;;5010296;28;20193;-52
2023/10/16 02:47:12;;;;;;;5.63;1.90;;;;;;;;;;5011835;28;20569;-52
2023/10/16 02:49:49;;;;;;;3.57;2.17;;;;;;;;;;5008686;28;20869;-52
2023/10/16 02:52:16;;;;;;;5.93;2.23;;;;;;;;;;5005103;28;20482;-52
2023/10/16 02:54:43;;;;;;;3.87;1.90;;;;;;;;;;5006774;28;20961;-52
2023/10/16 02:57:10;;;;;;;3.40;2.03;;;;;;;;;;5003187;28;20436;-52
2023/10/16 02:59:36;;;;;;;4.03;2.00;;;;;;;;;;5004984;28;20197;-52
2023/10/16 03:02:05;;;;;;;7.20;2.80;;;;;;;;;;5008515;28;20433;-51
2023/10/16 03:04:33;;;;;;;5.60;2.43;;;;;;;;;;5006710;28;20205;-52
2023/10/16 03:07:00;;;;;;;3.00;2.30;;;;;;;;;;5006805;28;20460;-52
2023/10/16 03:09:28;;;;;;;6.87;2.40;;;;;;;;;;5006511;28;20544;-52
2023/10/16 03:12:10;;;;;;;5.07;2.20;;;;;;;;;;5009936;28;20530;-52
2023/10/16 03:14:45;;;;;;;4.33;2.10;;;;;;;;;;5001958;28;20464;-51
2023/10/16 03:17:21;;;;;;;3.73;2.10;;;;;;;;;;5004723;28;20444;-52
2023/10/16 03:19:48;;;;;;;4.83;2.27;;;;;;;;;;5008406;28;20436;-52
2023/10/16 03:22:17;;;;;;;5.30;2.30;;;;;;;;;;5006448;28;20444;-53
2023/10/16 03:24:43;;;;;;;3.00;2.30;;;;;;;;;;5000304;28;20901;-51
2023/10/16 03:27:09;;;;;;;7.13;2.60;;;;;;;;;;5008722;28;20851;-52
2023/10/16 03:29:35;;;;;;;5.33;2.00;;;;;;;;;;5008744;28;20440;-52
2023/10/16 03:32:02;;;;;;;4.50;2.30;;;;;;;;;;5008872;28;20738;-51
2023/10/16 03:34:31;;;;;;;8.57;2.73;;;;;;;;;;5005040;28;20468;-51
2023/10/16 03:37:01;;;;;;;6.47;2.40;;;;;;;;;;5006915;28;20863;-52
2023/10/16 03:39:29;;;;;;;5.43;2.20;;;;;;;;;;5006671;28;20460;-51
2023/10/16 03:41:55;;;;;;;5.13;2.90;;;;;;;;;;5006890;28;20483;-52
2023/10/16 03:44:24;;;;;;;5.30;2.33;;;;;;;;;;5008438;28;20429;-52
2023/10/16 03:46:50;;;;;;;7.30;2.30;;;;;;;;;;5006776;28;20468;-52
2023/10/16 03:49:17;;;;;;;4.27;2.33;;;;;;;;;;5006778;28;20471;-52
2023/10/16 03:51:48;;;;;;;3.60;2.27;;;;;;;;;;5005141;28;20508;-52
2023/10/16 03:54:16;;;;;;;3.77;1.97;;;;;;;;;;5004673;28;20770;-51
2023/10/16 03:56:44;;;;;;;4.90;2.20;;;;;;;;;;5006624;28;20445;-51
2023/10/16 03:59:11;;;;;;;4.40;2.30;;;;;;;;;;5004884;28;20455;-51
2023/10/16 04:01:39;;;;;;;5.23;2.20;;;;;;;;;;5008192;28;20527;-51
2023/10/16 04:04:12;;;;;;;4.03;2.07;;;;;;;;;;5009833;28;20516;-51
2023/10/16 04:06:39;;;;;;;5.43;2.50;;;;;;;;;;5008184;28;20441;-51
2023/10/16 04:09:09;;;;;;;5.60;2.30;;;;;;;;;;5009756;28;21161;-51
2023/10/16 04:11:37;;;;;;;5.37;2.13;;;;;;;;;;5006315;28;20499;-51
2023/10/16 04:14:09;;;;;;;3.80;2.23;;;;;;;;;;5009808;28;20440;-52
2023/10/16 04:16:53;;;;;;;5.10;2.10;;;;;;;;;;5006101;28;20448;-51
2023/10/16 04:21:54;;;;;;;2.43;2.00;;;;;;;;;;5004722;28;20420;-51
2023/10/16 04:29:25;;;;;;;3.53;2.10;;;;;;;;;;5014440;28;20523;-52
2023/10/16 04:31:58;;;;;;;5.27;2.90;;;;;;;;;;5014077;28;20511;-52
2023/10/16 05:00:56;;;;;;;4.57;1.90;;;;;;;;;;5008958;28;20437;-51
2023/10/16 05:11:27;;;;;;;7.40;2.47;;;;;;;;;;5008500;28;20985;-52
2023/10/16 05:14:11;;;;;;;3.17;2.00;;;;;;;;;;5006882;28;20435;-51
2023/10/16 05:16:48;;;;;;;5.57;1.97;;;;;;;;;;5006834;28;20671;-51
2023/10/16 06:16:32;;;;;;;5.00;2.37;;;;;;;;;;4999970;28;20980;-52
2023/10/16 06:18:59;;;;;;;3.90;2.50;;;;;;;;;;5000554;28;20201;-52
2023/10/16 06:21:26;;;;;;;4.53;2.10;;;;;;;;;;5002053;28;20201;-51
2023/10/16 06:23:52;;;;;;;4.23;2.20;;;;;;;;;;5001972;28;20681;-51
2023/10/16 06:26:21;;;;;;;3.80;2.10;;;;;;;;;;5003834;28;20201;-52
2023/10/16 06:28:47;;;;;;;4.03;2.20;;;;;;;;;;5002333;28;20259;-52
2023/10/16 06:31:14;;;;;;;3.57;2.17;;;;;;;;;;5003634;28;20682;-57
2023/10/16 06:33:43;;;;;;;6.23;2.93;;;;;;;;;;5003394;28;20659;-51
2023/10/16 06:36:13;;;;;;;4.90;2.60;;;;;;;;;;5001984;28;20280;-52
2023/10/16 06:38:40;;;;;;;4.60;2.73;;;;;;;;;;5001787;28;20213;-51
2023/10/16 06:41:06;;;;;;;4.43;2.33;;;;;;;;;;5002193;28;20202;-51
2023/10/16 06:43:34;;;;;;;3.07;2.23;;;;;;;;;;5000348;28;20280;-52
2023/10/16 06:46:09;;;;;;;3.40;2.27;;;;;;;;;;5001976;28;20280;-52
2023/10/16 06:48:37;;;;;;;5.40;2.37;;;;;;;;;;5003462;28;20223;-52
2023/10/16 06:51:04;;;;;;;3.57;2.23;;;;;;;;;;5000032;28;20233;-52
2023/10/16 06:53:30;;;;;;;4.13;2.57;;;;;;;;;;5006696;28;20201;-52
2023/10/16 06:55:57;;;;;;;3.33;2.23;;;;;;;;;;5003258;28;20209;-51
2023/10/16 06:58:23;;;;;;;4.07;2.13;;;;;;;;;;4999732;28;20217;-52
2023/10/16 07:00:49;;;;;;;3.13;2.13;;;;;;;;;;5000790;28;20197;-52
2023/10/16 07:03:16;;;;;;;4.93;2.40;;;;;;;;;;5001777;28;20464;-52
2023/10/16 07:05:42;;;;;;;3.87;2.80;;;;;;;;;;5003147;28;20280;-51
2023/10/16 07:08:09;;;;;;;3.70;2.50;;;;;;;;;;4999801;28;20221;-52
2023/10/16 07:10:35;;;;;;;3.13;2.27;;;;;;;;;;5001167;28;20241;-52
2023/10/16 07:13:03;;;;;;;4.83;2.43;;;;;;;;;;5001853;28;20201;-52
2023/10/16 07:15:30;;;;;;;3.90;2.20;;;;;;;;;;5001441;28;20277;-52
2023/10/16 07:17:56;;;;;;;4.40;2.13;;;;;;;;;;5002810;28;20275;-52
2023/10/16 07:20:29;;;;;;;3.33;1.93;;;;;;;;;;5004750;28;20656;-52
2023/10/16 07:23:02;;;;;;;5.67;2.20;;;;;;;;;;5001298;28;20202;-53
2023/10/16 07:25:54;;;;;;;5.63;2.10;;;;;;;;;;5001244;28;20212;-53
2023/10/16 07:28:22;;;;;;;6.97;2.70;;;;;;;;;;5001116;28;20735;-53
2023/10/16 07:30:48;;;;;;;3.00;2.43;;;;;;;;;;4999410;28;20240;-53
2023/10/16 07:33:20;;;;;;;3.77;2.47;;;;;;;;;;5001200;28;20198;-52
2023/10/16 07:35:47;;;;;;;4.50;2.57;;;;;;;;;;5003006;28;20201;-53
2023/10/16 07:38:13;;;;;;;5.63;2.50;;;;;;;;;;5003867;28;20230;-52
2023/10/16 07:40:39;;;;;;;4.10;2.70;;;;;;;;;;5002736;28;20268;-52
2023/10/16 07:43:06;;;;;;;5.53;2.50;;;;;;;;;;5004600;28;20205;-53
2023/10/16 07:45:33;;;;;;;3.90;2.40;;;;;;;;;;5003055;28;20197;-53
2023/10/16 07:48:16;;;;;;;5.07;2.73;;;;;;;;;;4999454;28;20594;-53
2023/10/16 07:50:44;;;;;;;5.20;2.63;;;;;;;;;;5001252;28;20233;-53
2023/10/16 07:53:17;;;;;;;2.67;2.07;;;;;;;;;;5001081;28;20209;-53
2023/10/16 07:55:50;;;;;;;3.73;2.40;;;;;;;;;;4999310;28;20557;-53
2023/10/16 07:58:16;;;;;;;2.43;2.00;;;;;;;;;;4999434;28;20667;-53
2023/10/16 08:00:59;;;;;;;4.60;2.20;;;;;;;;;;5000958;28;20189;-53
2023/10/16 08:03:26;;;;;;;3.40;2.03;;;;;;;;;;5004486;28;20212;-53
2023/10/16 08:05:52;;;;;;;3.67;2.10;;;;;;;;;;4999439;28;20599;-53
2023/10/16 08:08:25;;;;;;;3.97;2.53;;;;;;;;;;5002756;28;20224;-53
2023/10/16 08:10:52;;;;;;;3.93;2.10;;;;;;;;;;5004861;28;20311;-53
2023/10/16 08:13:24;;;;;;;4.93;2.43;;;;;;;;;;5006458;28;20206;-54
2023/10/16 08:15:51;;;;;;;2.73;2.23;;;;;;;;;;5006061;28;20211;-54
2023/10/16 08:18:18;;;;;;;4.40;2.27;;;;;;;;;;5006438;28;20215;-54
2023/10/16 08:21:00;;;;;;;4.47;2.20;;;;;;;;;;5002693;28;20247;-54
2023/10/16 08:23:31;;;;;;;5.73;2.37;;;;;;;;;;5002700;28;20689;-51
2023/10/16 08:26:00;;;;;;;6.50;2.00;;;;;;;;;;5006263;28;20223;-52
2023/10/16 08:28:35;;;;;;;5.57;2.03;;;;;;;;;;5005810;28;20637;-52
2023/10/16 08:31:22;;;;;;;2.73;2.13;;;;;;;;;;5004346;28;20315;-54
2023/10/16 08:33:49;;;;;;;3.20;2.20;;;;;;;;;;5004033;28;20244;-54
2023/10/16 08:36:18;;;;;;;3.23;2.27;;;;;;;;;;5006076;28;20205;-54
2023/10/16 08:38:52;;;;;;;3.07;2.20;;;;;;;;;;5002198;28;20202;-54
2023/10/16 08:41:21;;;;;;;2.93;2.17;;;;;;;;;;5005981;28;20201;-54
2023/10/16 08:43:54;;;;;;;4.67;2.40;;;;;;;;;;5004356;28;20224;-54
2023/10/16 08:46:30;;;;;;;2.23;2.00;;;;;;;;;;5002236;28;20201;-54
2023/10/16 08:48:57;;;;;;;3.33;2.53;;;;;;;;;;5003859;28;20205;-54
2023/10/16 08:51:23;;;;;;;5.43;2.30;;;;;;;;;;5005609;28;20225;-54
2023/10/16 08:53:49;;;;;;;3.13;2.50;;;;;;;;;;5005370;28;20252;-54
2023/10/16 08:56:18;;;;;;;2.60;2.40;;;;;;;;;;5003652;28;20198;-54
2023/10/16 08:58:45;;;;;;;4.37;2.53;;;;;;;;;;5007138;28;20207;-54
2023/10/16 09:01:13;;;;;;;2.83;2.00;;;;;;;;;;5005558;28;20205;-54
2023/10/16 09:03:46;;;;;;;3.83;2.07;;;;;;;;;;5002348;28;20225;-54
2023/10/16 09:06:21;;;;;;;3.67;2.33;;;;;;;;;;5005195;28;20209;-54
2023/10/16 09:08:48;;;;;;;4.10;2.20;;;;;;;;;;5006913;28;20205;-54
2023/10/16 09:11:16;;;;;;;4.40;2.37;;;;;;;;;;5005407;28;20229;-54
2023/10/16 09:13:45;;;;;;;3.70;2.10;;;;;;;;;;5001699;28;20210;-54
2023/10/16 09:16:11;;;;;;;3.90;2.40;;;;;;;;;;5000186;28;20206;-54
2023/10/16 09:18:37;;;;;;;2.83;2.27;;;;;;;;;;5004919;28;20205;-54
2023/10/16 09:21:13;;;;;;;2.70;2.10;;;;;;;;;;5005122;28;20201;-54
2023/10/16 09:23:39;;;;;;;4.47;2.20;;;;;;;;;;5003597;28;20679;-54
2023/10/16 09:26:07;;;;;;;2.77;2.10;;;;;;;;;;5002857;28;20236;-54
2023/10/16 09:28:33;;;;;;;2.57;1.77;;;;;;;;;;5003120;28;20571;-54
2023/10/16 09:31:02;;;;;;;4.33;2.27;;;;;;;;;;5003179;28;20229;-53
2023/10/16 09:33:28;;;;;;;3.33;2.10;;;;;;;;;;5004713;28;20237;-56
2023/10/16 09:36:00;;;;;;;4.03;2.50;;;;;;;;;;4999701;28;20210;-55
2023/10/16 09:38:32;;;;;;;2.57;2.07;;;;;;;;;;5012863;28;20549;-56
2023/10/16 09:43:46;;;;;;;2.40;2.03;;;;;;;;;;5013060;28;20354;-56
2023/10/16 09:48:57;;;;;;;2.07;1.90;;;;;;;;;;5012955;28;20239;-56
2023/10/16 09:51:24;;;;;;;3.13;1.83;;;;;;;;;;5013029;28;20221;-55
2023/10/16 09:53:52;;;;;;;3.40;1.87;;;;;;;;;;5012421;28;20206;-54
2023/10/16 09:56:23;;;;;;;3.97;1.90;;;;;;;;;;5013068;28;20209;-55
2023/10/16 09:58:51;;;;;;;2.73;2.03;;;;;;;;;;5012942;28;20205;-55
2023/10/16 10:01:29;;;;;;;3.28;2.17;;;;;;;;;;5011612;28;20890;-55
2023/10/16 10:03:55;;;;;;;3.80;2.00;;;;;;;;;;5010894;28;20221;-54
2023/10/16 10:06:21;;;;;;;3.13;1.87;;;;;;;;;;5011139;28;20194;-55
2023/10/16 10:09:20;;;;;;;1.90;1.53;;;;;;;;;;5012632;28;20558;-54
2023/10/16 10:11:47;;;;;;;4.87;1.90;;;;;;;;;;5010746;28;20252;-54
2023/10/16 10:16:56;;;;;;;2.00;1.40;;;;;;;;;;5012406;28;20301;-54
2023/10/16 10:19:31;;;;;;;2.17;1.50;;;;;;;;;;5009142;28;20217;-54
2023/10/16 10:21:57;;;;;;;2.77;1.40;;;;;;;;;;5012241;28;20192;-55
2023/10/16 10:24:24;;;;;;;2.10;1.50;;;;;;;;;;5003145;28;20276;-54
2023/10/16 10:26:51;;;;;;;1.50;1.33;;;;;;;;;;5008005;28;20255;-55
2023/10/16 10:29:20;;;;;;;2.43;1.20;;;;;;;;;;5012274;28;20738;-56
2023/10/16 10:31:47;;;;;;;3.57;1.37;;;;;;;;;;5011023;28;20244;-54
2023/10/16 10:34:18;;;;;;;1.90;1.50;;;;;;;;;;5012112;28;20259;-55
2023/10/16 10:36:44;;;;;;;2.00;1.37;;;;;;;;;;5012261;28;20201;-55
2023/10/16 10:42:03;;;;;;;3.70;1.53;;;;;;;;;;5012068;28;20312;-54
2023/10/16 10:44:29;;;;;;;2.43;1.30;;;;;;;;;;5012137;28;20733;-53
2023/10/16 10:47:00;;;;;;;3.23;1.33;;;;;;;;;;5011901;28;20213;-54
2023/10/16 10:49:30;;;;;;;3.77;1.43;;;;;;;;;;5012176;28;20209;-54
2023/10/16 10:51:56;;;;;;;2.27;1.40;;;;;;;;;;5011633;28;20609;-54
2023/10/16 10:54:23;;;;;;;3.03;1.23;;;;;;;;;;5012011;28;20247;-54
2023/10/16 10:56:50;;;;;;;2.50;1.30;;;;;;;;;;5011499;28;20728;-53
2023/10/16 10:59:31;;;;;;;1.70;1.30;;;;;;;;;;5011957;28;20201;-55
2023/10/16 11:04:44;;;;;;;2.93;1.40;;;;;;;;;;5011925;28;20401;-54
2023/10/16 11:07:25;;;;;;;4.23;1.60;;;;;;;;;;5011882;28;20260;-54
2023/10/16 11:09:52;;;;;;;4.10;1.60;;;;;;;;;;5011123;28;20202;-54
2023/10/16 11:12:24;;;;;;;2.30;1.47;;;;;;;;;;5011755;28;20229;-54
2023/10/16 11:14:51;;;;;;;1.90;1.20;;;;;;;;;;5011566;28;20240;-54
2023/10/16 11:17:33;;;;;;;1.87;1.30;;;;;;;;;;5011954;28;20202;-54
2023/10/16 11:20:11;;;;;;;2.77;1.30;;;;;;;;;;5011559;28;20193;-55
2023/10/16 11:22:43;;;;;;;2.77;1.50;;;;;;;;;;5011331;28;20197;-54
2023/10/16 11:25:09;;;;;;;4.00;1.60;;;;;;;;;;5011704;28;20197;-53
2023/10/16 11:27:35;;;;;;;1.53;1.27;;;;;;;;;;5011551;28;20197;-53
2023/10/16 11:30:11;;;;;;;2.73;1.47;;;;;;;;;;5008923;28;20203;-53
2023/10/16 11:32:41;;;;;;;3.63;1.50;;;;;;;;;;5008816;28;20225;-52
2023/10/16 11:35:15;;;;;;;3.73;1.43;;;;;;;;;;5010739;28;20715;-51
2023/10/16 11:37:43;;;;;;;2.97;1.20;;;;;;;;;;5011403;28;20292;-52
2023/10/16 11:40:18;;;;;;;1.93;1.40;;;;;;;;;;5011565;28;20252;-52
2023/10/16 11:42:44;;;;;;;4.23;1.70;;;;;;;;;;5010955;28;20193;-52
2023/10/16 11:45:18;;;;;;;2.30;1.50;;;;;;;;;;5009720;28;20493;-53
2023/10/16 11:48:03;;;;;;;4.13;1.40;;;;;;;;;;5013214;28;20404;-52
2023/10/16 11:50:38;;;;;;;4.60;1.30;;;;;;;;;;5015297;28;20448;-53
2023/10/16 11:53:07;;;;;;;2.80;1.30;;;;;;;;;;5012335;28;20294;-53
2023/10/16 11:55:36;;;;;;;3.37;1.27;;;;;;;;;;5015314;28;20552;-54
2023/10/16 11:58:02;;;;;;;2.53;1.40;;;;;;;;;;5014576;28;20233;-53
2023/10/16 12:00:31;;;;;;;2.10;1.20;;;;;;;;;;5015423;28;20639;-54
2023/10/16 12:02:58;;;;;;;4.20;1.63;;;;;;;;;;5011435;28;20747;-54
2023/10/16 12:05:28;;;;;;;3.13;1.20;;;;;;;;;;5015107;28;20202;-52
2023/10/16 12:07:56;;;;;;;2.73;1.07;;;;;;;;;;5014991;28;20259;-54
2023/10/16 12:10:23;;;;;;;3.77;1.40;;;;;;;;;;5015042;28;20206;-53
2023/10/16 12:12:49;;;;;;;1.40;1.30;;;;;;;;;;5014935;28;20221;-53
2023/10/16 12:15:15;;;;;;;2.13;1.30;;;;;;;;;;5014948;28;20251;-53
2023/10/16 12:17:43;;;;;;;4.93;1.80;;;;;;;;;;5014898;28;20203;-54
2023/10/16 12:20:12;;;;;;;3.83;1.53;;;;;;;;;;5014882;28;20284;-60
2023/10/16 12:22:39;;;;;;;5.07;1.40;;;;;;;;;;5014764;28;20259;-63
2023/10/16 12:25:08;;;;;;;1.77;1.30;;;;;;;;;;5014743;28;20277;-63
2023/10/16 12:27:36;;;;;;;3.37;1.40;;;;;;;;;;5014951;28;20667;-64
2023/10/16 12:30:03;;;;;;;2.50;1.30;;;;;;;;;;5009014;28;20197;-54
2023/10/16 12:32:30;;;;;;;1.63;1.20;;;;;;;;;;5009016;28;20628;-52
2023/10/16 12:34:58;;;;;;;2.93;1.70;;;;;;;;;;5012836;28;20279;-54
2023/10/16 12:37:25;;;;;;;2.70;1.30;;;;;;;;;;5014569;28;20633;-54
2023/10/16 12:39:53;;;;;;;3.43;1.70;;;;;;;;;;5013943;28;20224;-53
2023/10/16 12:42:19;;;;;;;2.63;1.60;;;;;;;;;;5340043;23;20264;-53
2023/10/16 12:44:45;;;;;;;2.63;1.40;;;;;;;;;;5014862;28;20194;-54
2023/10/16 12:47:11;;;;;;;2.00;1.30;;;;;;;;;;5014679;28;20706;-53
2023/10/16 12:49:37;;;;;;;2.67;1.40;;;;;;;;;;5014672;28;20190;-53
2023/10/16 12:52:05;;;;;;;2.77;1.50;;;;;;;;;;5014453;28;20251;-54
2023/10/16 12:54:32;;;;;;;2.23;1.50;;;;;;;;;;5012792;28;20209;-53
2023/10/16 12:56:59;;;;;;;2.13;1.70;;;;;;;;;;5013910;28;20206;-54
2023/10/16 12:59:26;;;;;;;2.67;1.77;;;;;;;;;;5012102;28;20284;-53
2023/10/16 13:01:52;;;;;;;3.47;1.70;;;;;;;;;;5014201;28;20206;-54
2023/10/16 13:04:19;;;;;;;2.97;1.73;;;;;;;;;;5011077;28;20197;-54
2023/10/16 13:06:45;;;;;;;3.07;1.60;;;;;;;;;;5012720;28;20569;-54
2023/10/16 13:09:18;;;;;;;1.83;1.20;;;;;;;;;;5010939;28;20296;-54
2023/10/16 13:11:46;;;;;;;2.17;1.50;;;;;;;;;;5014334;28;20249;-53
2023/10/16 13:14:12;;;;;;;1.23;1.00;;;;;;;;;;5010455;28;20750;-54
2023/10/16 13:16:38;;;;;;;2.20;1.30;;;;;;;;;;5014100;28;20792;-54
2023/10/16 13:19:04;;;;;;;3.00;1.40;;;;;;;;;;5012338;28;20209;-53
2023/10/16 13:21:33;;;;;;;2.47;1.37;;;;;;;;;;5007395;28;20198;-53
2023/10/16 13:24:00;;;;;;;2.47;1.40;;;;;;;;;;5007072;28;20727;-53
2023/10/16 13:26:29;;;;;;;2.37;1.50;;;;;;;;;;5008892;28;20280;-53
2023/10/16 13:28:56;;;;;;;3.43;1.60;;;;;;;;;;5010067;28;20264;-53
2023/10/16 13:31:23;;;;;;;2.60;1.23;;;;;;;;;;5013321;28;20233;-53
2023/10/16 13:33:50;;;;;;;1.93;1.10;;;;;;;;;;5013270;28;20232;-53
2023/10/16 13:36:17;;;;;;;2.87;1.50;;;;;;;;;;5010226;28;20558;-53
2023/10/16 13:38:47;;;;;;;1.80;1.40;;;;;;;;;;5013222;28;20663;-54
2023/10/16 13:41:18;;;;;;;2.40;1.40;;;;;;;;;;5008283;28;20675;-54
2023/10/16 13:43:44;;;;;;;1.80;1.33;;;;;;;;;;5011684;28;20244;-54
2023/10/16 13:46:13;;;;;;;1.67;1.50;;;;;;;;;;4993224;28;20249;-54
2023/10/16 13:48:45;;;;;;;2.93;1.70;;;;;;;;;;4990563;28;20198;-54
2023/10/16 13:51:13;;;;;;;3.77;1.90;;;;;;;;;;4988591;28;20285;-54
2023/10/16 13:53:39;;;;;;;3.40;1.60;;;;;;;;;;4986691;28;20198;-55
2023/10/16 13:56:07;;;;;;;2.30;1.27;;;;;;;;;;4988216;28;20213;-53
2023/10/16 13:58:33;;;;;;;1.60;1.20;;;;;;;;;;4990158;28;20252;-53
2023/10/16 14:00:59;;;;;;;4.27;1.60;;;;;;;;;;4988198;28;20198;-56
2023/10/16 14:03:26;;;;;;;2.10;1.23;;;;;;;;;;4988038;28;20205;-55
2023/10/16 14:05:52;;;;;;;2.27;1.40;;;;;;;;;;4984841;28;20218;-54
2023/10/16 14:08:26;;;;;;;1.73;1.53;;;;;;;;;;4987883;28;20202;-54
2023/10/16 14:10:52;;;;;;;4.70;1.57;;;;;;;;;;4986256;28;20226;-53
2023/10/16 14:13:19;;;;;;;2.60;1.37;;;;;;;;;;4989760;28;20320;-53
2023/10/16 14:15:46;;;;;;;1.90;1.40;;;;;;;;;;4986409;28;20213;-53
2023/10/16 14:18:14;;;;;;;3.27;1.30;;;;;;;;;;4984476;28;20198;-54
2023/10/16 14:20:48;;;;;;;2.23;1.50;;;;;;;;;;4987948;28;20206;-53
2023/10/16 14:23:14;;;;;;;2.90;1.23;;;;;;;;;;4986555;28;20221;-53
2023/10/16 14:25:57;;;;;;;1.87;1.47;;;;;;;;;;4989614;28;20289;-53
2023/10/16 14:31:09;;;;;;;2.93;1.30;;;;;;;;;;4984336;28;20237;-53
2023/10/16 14:33:36;;;;;;;2.80;1.67;;;;;;;;;;4986084;28;20337;-53
2023/10/16 14:36:05;;;;;;;2.10;1.00;;;;;;;;;;4987822;28;20210;-53
2023/10/16 14:38:31;;;;;;;2.23;1.00;;;;;;;;;;4989444;28;20241;-53
2023/10/16 14:41:41;;;;;;;1.57;1.10;;;;;;;;;;4982499;28;20202;-53
2023/10/16 14:43:46;;;;;;;1.83;1.30;;;;;;;;;;4979538;28;20315;-54
2023/10/16 14:46:12;;;;;;;2.97;1.13;;;;;;;;;;4985705;28;20294;-54
2023/10/16 14:48:38;;;;;;;1.30;1.10;;;;;;;;;;4982292;28;20198;-54
2023/10/16 14:51:06;;;;;;;1.63;0.90;;;;;;;;;;4983858;28;20676;-53
2023/10/16 14:53:32;;;;;;;1.93;0.90;;;;;;;;;;4987510;28;20253;-53
2023/10/16 14:55:58;;;;;;;3.83;1.23;;;;;;;;;;4984105;28;20198;-53
2023/10/16 14:58:24;;;;;;;1.63;1.27;;;;;;;;;;4983757;28;20213;-53
2023/10/16 15:00:50;;;;;;;2.87;1.53;;;;;;;;;;4990673;28;20224;-56
2023/10/16 15:03:17;;;;;;;2.03;1.30;;;;;;;;;;4992363;28;20194;-54
2023/10/16 15:05:44;;;;;;;3.27;1.57;;;;;;;;;;4992161;28;20229;-54
2023/10/16 15:08:14;;;;;;;2.00;1.60;;;;;;;;;;4992229;28;20200;-54
2023/10/16 15:10:42;;;;;;;3.20;2.10;;;;;;;;;;4992259;28;20206;-54
2023/10/16 15:13:09;;;;;;;3.63;2.53;;;;;;;;;;4992033;28;20238;-54
2023/10/16 15:15:37;;;;;;;6.07;2.67;;;;;;;;;;4992232;28;20572;-54
2023/10/16 15:18:03;;;;;;;3.87;2.23;;;;;;;;;;4992246;28;20672;-54
2023/10/16 15:20:30;;;;;;;2.80;1.87;;;;;;;;;;4991361;28;20234;-54
2023/10/16 15:22:57;;;;;;;2.37;1.60;;;;;;;;;;4991886;28;20198;-54
2023/10/16 15:25:24;;;;;;;2.17;1.60;;;;;;;;;;4992092;28;20202;-54
2023/10/16 15:27:50;;;;;;;3.57;1.83;;;;;;;;;;4991977;28;20234;-54
2023/10/16 15:30:18;;;;;;;2.07;1.60;;;;;;;;;;4992162;28;20719;-54
2023/10/16 15:32:46;;;;;;;1.60;1.50;;;;;;;;;;4991953;28;20676;-54
2023/10/16 15:35:14;;;;;;;2.93;1.70;;;;;;;;;;4991776;28;20208;-54
2023/10/16 15:37:40;;;;;;;1.80;1.67;;;;;;;;;;4991624;28;20206;-53
2023/10/16 15:40:07;;;;;;;3.13;1.60;;;;;;;;;;4991516;28;20273;-53
2023/10/16 15:42:34;;;;;;;2.53;1.80;;;;;;;;;;4991867;28;20234;-53
2023/10/16 15:45:01;;;;;;;3.20;1.93;;;;;;;;;;4991848;28;20305;-54
2023/10/16 15:47:28;;;;;;;2.93;1.73;;;;;;;;;;4992347;28;20252;-54
2023/10/16 15:49:54;;;;;;;1.63;1.53;;;;;;;;;;4999651;28;20194;-54
2023/10/16 15:52:21;;;;;;;2.23;1.70;;;;;;;;;;5008777;28;20214;-54
2023/10/16 15:54:47;;;;;;;2.97;1.87;;;;;;;;;;5011917;28;20198;-52
2023/10/16 15:57:13;;;;;;;2.83;1.80;;;;;;;;;;5011716;28;20292;-54
2023/10/16 15:59:42;;;;;;;2.23;1.77;;;;;;;;;;5011546;28;20225;-58
2023/10/16 16:02:11;;;;;;;2.97;1.87;;;;;;;;;;5009038;28;20308;-53
2023/10/16 16:04:39;;;;;;;4.27;2.17;;;;;;;;;;5011287;28;20205;-53
2023/10/16 16:07:07;;;;;;;2.77;1.93;;;;;;;;;;5011110;28;20717;-53
2023/10/16 16:09:35;;;;;;;2.23;1.83;;;;;;;;;;5011211;28;20221;-53
2023/10/16 16:12:01;;;;;;;2.67;2.03;;;;;;;;;;5011236;28;20237;-53
2023/10/16 16:14:27;;;;;;;4.33;2.10;;;;;;;;;;5011031;28;20198;-53
2023/10/16 16:16:55;;;;;;;2.43;2.10;;;;;;;;;;5010888;28;20225;-53
2023/10/16 16:19:22;;;;;;;3.13;2.43;;;;;;;;;;5011005;28;20201;-55
2023/10/16 16:21:49;;;;;;;3.70;2.30;;;;;;;;;;5011014;28;20201;-53
2023/10/16 16:24:16;;;;;;;4.93;2.20;;;;;;;;;;5010514;28;20205;-53
2023/10/16 16:26:43;;;;;;;3.10;2.40;;;;;;;;;;5010709;28;20202;-53
2023/10/16 16:29:09;;;;;;;3.90;2.50;;;;;;;;;;5011018;28;20211;-53
2023/10/16 16:31:35;;;;;;;3.60;3.10;;;;;;;;;;5010978;28;20225;-53
2023/10/16 16:34:03;;;;;;;3.47;3.03;;;;;;;;;;5014766;28;20202;-54
2023/10/16 16:36:29;;;;;;;4.93;3.80;;;;;;;;;;5014412;28;20194;-54
2023/10/16 16:38:55;;;;;;;3.53;3.00;;;;;;;;;;5014826;28;20205;-55
2023/10/16 16:41:22;;;;;;;3.53;3.23;;;;;;;;;;5014524;28;20797;-55
2023/10/16 16:43:48;;;;;;;3.60;3.13;;;;;;;;;;5015033;28;20267;-55
2023/10/16 16:46:15;;;;;;;4.33;2.73;;;;;;;;;;5014723;28;20288;-54
2023/10/16 16:48:41;;;;;;;3.57;2.90;;;;;;;;;;5014799;28;20580;-54